Maersk Daesan — A8HN7 — position and weather

sailwx.info

Track history (hours):
 
Tides and Currents Weather Stations Pressure Air Temp Water Temp Dewpoint Dewpoint Depression Visibility Wind Speed Wind Dir Waves Ship Positions

Maersk Daesan

Last reported at 2017-Oct-08 23:47 UTC. Time now 2017-Oct-17 20:41 UTC.
Position N 35°35' E 014°23'.
Warning: this ship's position is 8 days out of date.

Length 294.1 m; beam 32.2 m; draft 13.5 m.

Type: Cargo ship. MMSI: 636090923.

Date/timePositionNaut miles runAvg speedWind from/ knotsBaromVisibWave heightAir tempDewpointWater temp
2017-Oct-08 23:47N 35°35' E 014°23'513.9
2017-Oct-08 23:25N 35°38' E 014°18'613.9
2017-Oct-08 23:00N 35°42' E 014°13'713.9
2017-Oct-08 22:30N 35°47' E 014°07'713.8
2017-Oct-08 21:59N 35°52' E 014°00'713.8
2017-Oct-08 21:30N 35°56' E 013°54'713.7
2017-Oct-08 20:59N 36°01' E 013°47'913.8
2017-Oct-08 20:22N 36°07' E 013°39'513.9
2017-Oct-08 20:00N 36°10' E 013°35'62513.4
2017-Oct-06 21:16N 36°44' E 000°39'413.8
2017-Oct-06 21:00N 36°43' E 000°35'713.7
2017-Oct-06 20:29N 36°42' E 000°26'1113.7
2017-Oct-06 19:41N 36°40' E 000°13'313.8
2017-Oct-06 19:28N 36°39' E 000°09'713.6
2017-Oct-06 18:59N 36°38' E 000°01'2513.5
2017-Oct-06 17:06N 36°34' W 000°30'113.4
2017-Oct-06 17:00N 36°34' W 000°32'713.4
2017-Oct-06 16:30N 36°33' W 000°40'713.7
2017-Oct-06 16:00N 36°32' W 000°49'714.0
2017-Oct-06 15:30N 36°31' W 000°57'1214.0
2017-Oct-06 14:39N 36°29' W 001°12'214.1
2017-Oct-06 14:30N 36°29' W 001°15'714.1
2017-Oct-06 13:58N 36°27' W 001°24'16814.1
2017-Oct-06 02:03N 36°03' W 004°50'114.2
2017-Oct-06 01:59N 36°03' W 004°51'713.9
2017-Oct-06 01:30N 36°02' W 004°59'714.5
2017-Oct-06 01:00N 36°01' W 005°08'714.8
2017-Oct-06 00:30N 35°60' W 005°17'714.7
2017-Oct-06 00:01N 35°58' W 005°26'714.4
2017-Oct-05 23:30N 35°56' W 005°34'713.4
2017-Oct-05 23:00N 35°54' W 005°42'612.9
2017-Oct-05 22:30N 35°54' W 005°50'1513.3
2017-Oct-05 21:21N 35°54' W 006°09'613.6
2017-Oct-05 20:55N 35°55' W 006°16'8113.7
2017-Oct-05 15:03N 36°15' W 007°53'013.2
2017-Oct-05 15:00N 36°15' W 007°54'713.5
2017-Oct-05 14:30N 36°17' W 008°02'1013.7
2017-Oct-05 13:47N 36°20' W 008°13'514.0
2017-Oct-05 13:25N 36°22' W 008°20'614.1
2017-Oct-05 13:00N 36°23' W 008°26'714.1
2017-Oct-05 12:30N 36°25' W 008°35'1014.1
2017-Oct-05 11:46N 36°27' W 008°48'414.0
2017-Oct-05 11:31N 36°28' W 008°52'1914.0
2017-Oct-05 10:09N 36°33' W 009°15'913.5
2017-Oct-05 09:27N 36°39' W 009°24'613.7
2017-Oct-05 09:00N 36°44' W 009°29'1113.4
2017-Oct-05 08:13N 36°53' W 009°35'313.9
2017-Oct-05 08:00N 36°56' W 009°36'713.9
2017-Oct-05 07:31N 37°03' W 009°38'713.9
2017-Oct-05 07:00N 37°10' W 009°40'713.7
2017-Oct-05 06:31N 37°16' W 009°42'714.0
2017-Oct-05 06:00N 37°23' W 009°44'714.0
2017-Oct-05 05:31N 37°30' W 009°46'714.2
2017-Oct-05 05:00N 37°37' W 009°48'713.8
2017-Oct-05 04:30N 37°44' W 009°49'714.2
2017-Oct-05 04:01N 37°50' W 009°52'714.5
2017-Oct-05 03:30N 37°58' W 009°54'714.5
2017-Oct-05 03:01N 38°05' W 009°56'713.9
2017-Oct-05 02:31N 38°11' W 009°58'713.6
2017-Oct-05 02:01N 38°18' W 009°60'713.9
2017-Oct-05 01:30N 38°25' W 010°02'713.7
2017-Oct-05 01:00N 38°31' W 010°04'714.3
2017-Oct-05 00:30N 38°38' W 010°06'714.1
2017-Oct-04 23:59N 38°46' W 010°07'714.3
2017-Oct-04 23:30N 38°53' W 010°07'714.1
2017-Oct-04 23:01N 38°60' W 010°07'714.0
2017-Oct-04 22:30N 39°07' W 010°07'713.8
2017-Oct-04 22:00N 39°13' W 010°07'714.7
2017-Oct-04 21:30N 39°21' W 010°07'714.5
2017-Oct-04 21:00N 39°28' W 010°07'714.5
2017-Oct-04 20:30N 39°35' W 010°07'713.9
2017-Oct-04 20:00N 39°42' W 010°07'714.2
2017-Oct-04 19:30N 39°49' W 010°07'714.0
2017-Oct-04 19:00N 39°56' W 010°08'815.8
2017-Oct-04 18:30N 40°04' W 010°08'63615.6
2017-Oct-03 01:49N 49°40' W 003°48'816.0
2017-Oct-03 01:18N 49°45' W 003°37'516.5
2017-Oct-03 01:00N 49°47' W 003°31'817.0
2017-Oct-03 00:31N 49°51' W 003°20'917.3
2017-Oct-03 00:00N 49°56' W 003°08'917.5
2017-Oct-02 23:30N 49°60' W 002°56'917.8
2017-Oct-02 23:00N 50°02' W 002°43'1017.8
2017-Oct-02 22:28N 50°05' W 002°28'1517.5
2017-Oct-02 21:38N 50°08' W 002°06'216.9
2017-Oct-02 21:30N 50°09' W 002°03'816.8
2017-Oct-02 21:00N 50°11' W 001°50'816.3
2017-Oct-02 20:31N 50°13' W 001°38'816.3
2017-Oct-02 20:01N 50°15' W 001°26'816.5
2017-Oct-02 19:31N 50°18' W 001°14'3015.3
2017-Oct-02 17:33N 50°26' W 000°28'114.9
2017-Oct-02 17:31N 50°26' W 000°28'815.2
2017-Oct-02 17:00N 50°28' W 000°16'815.6
2017-Oct-02 16:30N 50°30' W 000°04'816.0
2017-Oct-02 16:01N 50°32' E 000°08'816.9
2017-Oct-02 15:31N 50°34' E 000°21'918.6
2017-Oct-02 15:01N 50°37' E 000°35'918.7
2017-Oct-02 14:31N 50°42' E 000°47'918.8
2017-Oct-02 14:00N 50°47' E 000°60'918.6
2017-Oct-02 13:30N 50°52' E 001°12'918.2
2017-Oct-02 13:00N 50°58' E 001°23'816.8
2017-Oct-02 12:30N 51°04' E 001°33'612.7
2017-Oct-02 12:01N 51°05' E 001°43'612.6
2017-Oct-02 11:30N 51°02' E 001°51'612.4
2017-Oct-02 11:00N 51°03' E 002°01'611.3
2017-Oct-02 10:30N 51°02' E 002°10'2 3.0
2017-Oct-02 09:54N 51°00' E 002°11'0 0.0
2017-Oct-02 09:25N 51°00' E 002°11'0 0.0
2017-Oct-02 08:54N 51°00' E 002°11'0 0.0
2017-Oct-02 08:30N 51°00' E 002°11'0 0.0
2017-Oct-02 08:00N 51°00' E 002°11'0 0.0
2017-Oct-02 07:30N 51°00' E 002°11'0 0.0
2017-Oct-02 06:56N 51°00' E 002°11'0 0.0
2017-Oct-02 06:24N 51°00' E 002°11'0 0.0
2017-Oct-02 05:59N 51°00' E 002°11'0 0.0
2017-Oct-02 05:30N 51°00' E 002°11'0 0.0
2017-Oct-02 04:59N 51°00' E 002°11'0 0.0
2017-Oct-02 04:29N 51°00' E 002°11'0 0.1
2017-Oct-02 04:00N 51°00' E 002°11'0 0.0
2017-Oct-02 03:30N 51°00' E 002°11'0 0.0
2017-Oct-02 03:00N 51°00' E 002°11'0 0.0
2017-Oct-02 02:30N 51°00' E 002°11'0 0.0
2017-Oct-02 02:00N 51°00' E 002°11'0 0.0
2017-Oct-02 01:30N 51°00' E 002°11'0 0.1
2017-Oct-02 00:59N 51°00' E 002°11'0 0.0
2017-Oct-02 00:27N 51°00' E 002°11'0 0.0
2017-Oct-01 23:59N 51°00' E 002°11'0 0.0
2017-Oct-01 23:25N 51°00' E 002°11'0 0.0
2017-Oct-01 22:56N 51°00' E 002°11'0 0.0
2017-Oct-01 22:29N 51°00' E 002°11'0 0.0
2017-Oct-01 21:54N 51°00' E 002°11'0 0.0
2017-Oct-01 21:30N 51°00' E 002°11'0 0.0
2017-Oct-01 21:00N 51°00' E 002°11'0 0.0
2017-Oct-01 20:28N 51°00' E 002°11'0 0.0
2017-Oct-01 19:58N 51°00' E 002°11'0 0.0
2017-Oct-01 19:29N 51°00' E 002°11'0 0.0
2017-Oct-01 19:00N 51°00' E 002°11'0 0.0
2017-Oct-01 18:30N 51°00' E 002°11'1 1.5
2017-Oct-01 18:00N 51°01' E 002°11'3 5.6
2017-Oct-01 17:29N 51°03' E 002°07'714.4
2017-Oct-01 17:01N 51°02' E 001°56'612.4
2017-Oct-01 16:30N 51°03' E 001°47'3 6.8
2017-Oct-01 16:01N 51°05' E 001°42'715.0
2017-Oct-01 15:31N 51°12' E 001°45'918.6
2017-Oct-01 15:00N 51°20' E 001°54'918.3
2017-Oct-01 14:30N 51°27' E 002°02'918.0
2017-Oct-01 14:01N 51°35' E 002°10'918.0
2017-Oct-01 13:31N 51°42' E 002°19'5616.7
2017-Oct-01 10:09N 52°04' E 003°42'215.0
2017-Oct-01 10:00N 52°05' E 003°46'612.4
2017-Oct-01 09:30N 52°03' E 003°55'611.8
2017-Oct-01 09:00N 51°60' E 004°03'3 5.3
2017-Oct-01 08:30N 51°57' E 004°04'1 1.3
2017-Oct-01 07:53N 51°57' E 004°03'0 0.0
2017-Oct-01 07:29N 51°57' E 004°03'0 0.0
2017-Oct-01 06:59N 51°57' E 004°03'0 0.0
2017-Oct-01 06:29N 51°57' E 004°03'0 0.0
2017-Oct-01 05:59N 51°57' E 004°03'0 0.0
2017-Oct-01 05:29N 51°57' E 004°03'0 0.0
2017-Oct-01 04:59N 51°57' E 004°03'0 0.0
2017-Oct-01 04:29N 51°57' E 004°03'0 0.0
2017-Oct-01 03:59N 51°57' E 004°03'0 0.0
2017-Oct-01 03:29N 51°57' E 004°03'0 0.0
2017-Oct-01 02:59N 51°57' E 004°03'0 0.0
2017-Sep-30 01:58N 51°57' E 004°03'0 0.0
2017-Sep-30 01:28N 51°57' E 004°03'0 0.0
2017-Sep-30 00:58N 51°57' E 004°03'0 0.0
2017-Sep-30 00:28N 51°57' E 004°03'0 0.0
2017-Sep-29 23:58N 51°57' E 004°03'0 0.0
2017-Sep-29 23:28N 51°57' E 004°03'0 0.0
2017-Sep-29 22:58N 51°57' E 004°03'0 0.0
2017-Sep-29 22:28N 51°57' E 004°03'0 0.0
2017-Sep-29 21:58N 51°57' E 004°03'0 0.0
2017-Sep-29 21:28N 51°57' E 004°03'0 0.0
2017-Sep-29 20:58N 51°57' E 004°03'0 0.0
2017-Sep-29 20:28N 51°57' E 004°03'0 0.0
2017-Sep-29 19:58N 51°57' E 004°03'0 0.0
2017-Sep-29 19:28N 51°57' E 004°03'0 0.0
2017-Sep-29 18:58N 51°57' E 004°03'0 0.0
2017-Sep-29 18:28N 51°57' E 004°03'0 0.0
2017-Sep-29 17:58N 51°57' E 004°03'0 0.0
2017-Sep-29 17:28N 51°57' E 004°03'0 0.0
2017-Sep-29 16:58N 51°57' E 004°03'0 0.6
2017-Sep-29 16:30N 51°57' E 004°04'2 3.4
2017-Sep-29 16:00N 51°58' E 004°05'4 8.2
2017-Sep-29 15:30N 51°60' E 003°59'714.0
2017-Sep-29 15:01N 51°59' E 003°48'4 8.7
2017-Sep-29 14:31N 51°58' E 003°41'611.1
2017-Sep-29 13:59N 51°57' E 003°32'714.9
2017-Sep-29 13:29N 51°55' E 003°20'815.2
2017-Sep-29 12:59N 51°53' E 003°08'715.4
2017-Sep-29 12:30N 51°51' E 002°57'815.6
2017-Sep-29 12:00N 51°49' E 002°44'714.7
2017-Sep-29 11:29N 51°44' E 002°35'815.4
2017-Sep-29 10:59N 51°38' E 002°27'815.5
2017-Sep-29 10:30N 51°32' E 002°19'815.7
2017-Sep-29 10:00N 51°26' E 002°12'815.8
2017-Sep-29 09:30N 51°19' E 002°08'815.1
2017-Sep-29 09:00N 51°12' E 002°01'815.8
2017-Sep-29 08:30N 51°09' E 001°50'815.2
2017-Sep-29 08:00N 51°04' E 001°40'816.0
2017-Sep-29 07:30N 50°58' E 001°31'815.9
2017-Sep-29 07:00N 50°51' E 001°26'4816.0
2017-Sep-29 04:00N 50°25' E 000°23'917.3
2017-Sep-29 03:30N 50°23' E 000°10'917.6
2017-Sep-29 03:00N 50°20' W 000°03'917.9
2017-Sep-29 02:30N 50°18' W 000°17'918.1
2017-Sep-29 02:00N 50°16' W 000°31'917.9
2017-Sep-29 01:30N 50°19' W 000°44'916.8
2017-Sep-29 00:58N 50°26' W 000°52'817.2
2017-Sep-29 00:30N 50°33' W 000°55'714.6
2017-Sep-29 00:00N 50°41' W 000°56'  
Track history (hours):
 
Tides and Currents Weather Stations Pressure Air Temp Water Temp Dewpoint Dewpoint Depression Visibility Wind Speed Wind Dir Waves Ship Positions

Maersk Daesan

Last reported at 2017-Oct-08 23:47 UTC. Time now 2017-Oct-17 20:41 UTC.
Position N 35°35' E 014°23'.
Warning: this ship's position is 8 days out of date.

Length 294.1 m; beam 32.2 m; draft 13.5 m.

Type: Cargo ship. MMSI: 636090923.

Date/timePositionNaut miles runAvg speedWind from/ knotsBaromVisibWave heightAir tempDewpointWater temp
2017-Oct-08 23:47N 35°35' E 014°23'513.9
2017-Oct-08 23:25N 35°38' E 014°18'613.9
2017-Oct-08 23:00N 35°42' E 014°13'713.9
2017-Oct-08 22:30N 35°47' E 014°07'713.8
2017-Oct-08 21:59N 35°52' E 014°00'713.8
2017-Oct-08 21:30N 35°56' E 013°54'713.7
2017-Oct-08 20:59N 36°01' E 013°47'913.8
2017-Oct-08 20:22N 36°07' E 013°39'513.9
2017-Oct-08 20:00N 36°10' E 013°35'62513.4
2017-Oct-06 21:16N 36°44' E 000°39'413.8
2017-Oct-06 21:00N 36°43' E 000°35'713.7
2017-Oct-06 20:29N 36°42' E 000°26'1113.7
2017-Oct-06 19:41N 36°40' E 000°13'313.8
2017-Oct-06 19:28N 36°39' E 000°09'713.6
2017-Oct-06 18:59N 36°38' E 000°01'2513.5
2017-Oct-06 17:06N 36°34' W 000°30'113.4
2017-Oct-06 17:00N 36°34' W 000°32'713.4
2017-Oct-06 16:30N 36°33' W 000°40'713.7
2017-Oct-06 16:00N 36°32' W 000°49'714.0
2017-Oct-06 15:30N 36°31' W 000°57'1214.0
2017-Oct-06 14:39N 36°29' W 001°12'214.1
2017-Oct-06 14:30N 36°29' W 001°15'714.1
2017-Oct-06 13:58N 36°27' W 001°24'16814.1
2017-Oct-06 02:03N 36°03' W 004°50'114.2
2017-Oct-06 01:59N 36°03' W 004°51'713.9
2017-Oct-06 01:30N 36°02' W 004°59'714.5
2017-Oct-06 01:00N 36°01' W 005°08'714.8
2017-Oct-06 00:30N 35°60' W 005°17'714.7
2017-Oct-06 00:01N 35°58' W 005°26'714.4
2017-Oct-05 23:30N 35°56' W 005°34'713.4
2017-Oct-05 23:00N 35°54' W 005°42'612.9
2017-Oct-05 22:30N 35°54' W 005°50'1513.3
2017-Oct-05 21:21N 35°54' W 006°09'613.6
2017-Oct-05 20:55N 35°55' W 006°16'8113.7
2017-Oct-05 15:03N 36°15' W 007°53'013.2
2017-Oct-05 15:00N 36°15' W 007°54'713.5
2017-Oct-05 14:30N 36°17' W 008°02'1013.7
2017-Oct-05 13:47N 36°20' W 008°13'514.0
2017-Oct-05 13:25N 36°22' W 008°20'614.1
2017-Oct-05 13:00N 36°23' W 008°26'714.1
2017-Oct-05 12:30N 36°25' W 008°35'1014.1
2017-Oct-05 11:46N 36°27' W 008°48'414.0
2017-Oct-05 11:31N 36°28' W 008°52'1914.0
2017-Oct-05 10:09N 36°33' W 009°15'913.5
2017-Oct-05 09:27N 36°39' W 009°24'613.7
2017-Oct-05 09:00N 36°44' W 009°29'1113.4
2017-Oct-05 08:13N 36°53' W 009°35'313.9
2017-Oct-05 08:00N 36°56' W 009°36'713.9
2017-Oct-05 07:31N 37°03' W 009°38'713.9
2017-Oct-05 07:00N 37°10' W 009°40'713.7
2017-Oct-05 06:31N 37°16' W 009°42'714.0
2017-Oct-05 06:00N 37°23' W 009°44'714.0
2017-Oct-05 05:31N 37°30' W 009°46'714.2
2017-Oct-05 05:00N 37°37' W 009°48'713.8
2017-Oct-05 04:30N 37°44' W 009°49'714.2
2017-Oct-05 04:01N 37°50' W 009°52'714.5
2017-Oct-05 03:30N 37°58' W 009°54'714.5
2017-Oct-05 03:01N 38°05' W 009°56'713.9
2017-Oct-05 02:31N 38°11' W 009°58'713.6
2017-Oct-05 02:01N 38°18' W 009°60'713.9
2017-Oct-05 01:30N 38°25' W 010°02'713.7
2017-Oct-05 01:00N 38°31' W 010°04'714.3
2017-Oct-05 00:30N 38°38' W 010°06'714.1
2017-Oct-04 23:59N 38°46' W 010°07'714.3
2017-Oct-04 23:30N 38°53' W 010°07'714.1
2017-Oct-04 23:01N 38°60' W 010°07'714.0
2017-Oct-04 22:30N 39°07' W 010°07'713.8
2017-Oct-04 22:00N 39°13' W 010°07'714.7
2017-Oct-04 21:30N 39°21' W 010°07'714.5
2017-Oct-04 21:00N 39°28' W 010°07'714.5
2017-Oct-04 20:30N 39°35' W 010°07'713.9
2017-Oct-04 20:00N 39°42' W 010°07'714.2
2017-Oct-04 19:30N 39°49' W 010°07'714.0
2017-Oct-04 19:00N 39°56' W 010°08'815.8
2017-Oct-04 18:30N 40°04' W 010°08'63615.6
2017-Oct-03 01:49N 49°40' W 003°48'816.0
2017-Oct-03 01:18N 49°45' W 003°37'516.5
2017-Oct-03 01:00N 49°47' W 003°31'817.0
2017-Oct-03 00:31N 49°51' W 003°20'917.3
2017-Oct-03 00:00N 49°56' W 003°08'917.5
2017-Oct-02 23:30N 49°60' W 002°56'917.8
2017-Oct-02 23:00N 50°02' W 002°43'1017.8
2017-Oct-02 22:28N 50°05' W 002°28'1517.5
2017-Oct-02 21:38N 50°08' W 002°06'216.9
2017-Oct-02 21:30N 50°09' W 002°03'816.8
2017-Oct-02 21:00N 50°11' W 001°50'816.3
2017-Oct-02 20:31N 50°13' W 001°38'816.3
2017-Oct-02 20:01N 50°15' W 001°26'816.5
2017-Oct-02 19:31N 50°18' W 001°14'3015.3
2017-Oct-02 17:33N 50°26' W 000°28'114.9
2017-Oct-02 17:31N 50°26' W 000°28'815.2
2017-Oct-02 17:00N 50°28' W 000°16'815.6
2017-Oct-02 16:30N 50°30' W 000°04'816.0
2017-Oct-02 16:01N 50°32' E 000°08'816.9
2017-Oct-02 15:31N 50°34' E 000°21'918.6
2017-Oct-02 15:01N 50°37' E 000°35'918.7
2017-Oct-02 14:31N 50°42' E 000°47'918.8
2017-Oct-02 14:00N 50°47' E 000°60'918.6
2017-Oct-02 13:30N 50°52' E 001°12'918.2
2017-Oct-02 13:00N 50°58' E 001°23'816.8
2017-Oct-02 12:30N 51°04' E 001°33'612.7
2017-Oct-02 12:01N 51°05' E 001°43'612.6
2017-Oct-02 11:30N 51°02' E 001°51'612.4
2017-Oct-02 11:00N 51°03' E 002°01'611.3
2017-Oct-02 10:30N 51°02' E 002°10'2 3.0
2017-Oct-02 09:54N 51°00' E 002°11'0 0.0
2017-Oct-02 09:25N 51°00' E 002°11'0 0.0
2017-Oct-02 08:54N 51°00' E 002°11'0 0.0
2017-Oct-02 08:30N 51°00' E 002°11'0 0.0
2017-Oct-02 08:00N 51°00' E 002°11'0 0.0
2017-Oct-02 07:30N 51°00' E 002°11'0 0.0
2017-Oct-02 06:56N 51°00' E 002°11'0 0.0
2017-Oct-02 06:24N 51°00' E 002°11'0 0.0
2017-Oct-02 05:59N 51°00' E 002°11'0 0.0
2017-Oct-02 05:30N 51°00' E 002°11'0 0.0
2017-Oct-02 04:59N 51°00' E 002°11'0 0.0
2017-Oct-02 04:29N 51°00' E 002°11'0 0.1
2017-Oct-02 04:00N 51°00' E 002°11'0 0.0
2017-Oct-02 03:30N 51°00' E 002°11'0 0.0
2017-Oct-02 03:00N 51°00' E 002°11'0 0.0
2017-Oct-02 02:30N 51°00' E 002°11'0 0.0
2017-Oct-02 02:00N 51°00' E 002°11'0 0.0
2017-Oct-02 01:30N 51°00' E 002°11'0 0.1
2017-Oct-02 00:59N 51°00' E 002°11'0 0.0
2017-Oct-02 00:27N 51°00' E 002°11'0 0.0
2017-Oct-01 23:59N 51°00' E 002°11'0 0.0
2017-Oct-01 23:25N 51°00' E 002°11'0 0.0
2017-Oct-01 22:56N 51°00' E 002°11'0 0.0
2017-Oct-01 22:29N 51°00' E 002°11'0 0.0
2017-Oct-01 21:54N 51°00' E 002°11'0 0.0
2017-Oct-01 21:30N 51°00' E 002°11'0 0.0
2017-Oct-01 21:00N 51°00' E 002°11'0 0.0
2017-Oct-01 20:28N 51°00' E 002°11'0 0.0
2017-Oct-01 19:58N 51°00' E 002°11'0 0.0
2017-Oct-01 19:29N 51°00' E 002°11'0 0.0
2017-Oct-01 19:00N 51°00' E 002°11'0 0.0
2017-Oct-01 18:30N 51°00' E 002°11'1 1.5
2017-Oct-01 18:00N 51°01' E 002°11'3 5.6
2017-Oct-01 17:29N 51°03' E 002°07'714.4
2017-Oct-01 17:01N 51°02' E 001°56'612.4
2017-Oct-01 16:30N 51°03' E 001°47'3 6.8
2017-Oct-01 16:01N 51°05' E 001°42'715.0
2017-Oct-01 15:31N 51°12' E 001°45'918.6
2017-Oct-01 15:00N 51°20' E 001°54'918.3
2017-Oct-01 14:30N 51°27' E 002°02'918.0
2017-Oct-01 14:01N 51°35' E 002°10'918.0
2017-Oct-01 13:31N 51°42' E 002°19'5616.7
2017-Oct-01 10:09N 52°04' E 003°42'215.0
2017-Oct-01 10:00N 52°05' E 003°46'612.4
2017-Oct-01 09:30N 52°03' E 003°55'611.8
2017-Oct-01 09:00N 51°60' E 004°03'3 5.3
2017-Oct-01 08:30N 51°57' E 004°04'1 1.3
2017-Oct-01 07:53N 51°57' E 004°03'0 0.0
2017-Oct-01 07:29N 51°57' E 004°03'0 0.0
2017-Oct-01 06:59N 51°57' E 004°03'0 0.0
2017-Oct-01 06:29N 51°57' E 004°03'0 0.0
2017-Oct-01 05:59N 51°57' E 004°03'0 0.0
2017-Oct-01 05:29N 51°57' E 004°03'0 0.0
2017-Oct-01 04:59N 51°57' E 004°03'0 0.0
2017-Oct-01 04:29N 51°57' E 004°03'0 0.0
2017-Oct-01 03:59N 51°57' E 004°03'0 0.0
2017-Oct-01 03:29N 51°57' E 004°03'0 0.0
2017-Oct-01 02:59N 51°57' E 004°03'0 0.0
2017-Sep-30 01:58N 51°57' E 004°03'0 0.0
2017-Sep-30 01:28N 51°57' E 004°03'0 0.0
2017-Sep-30 00:58N 51°57' E 004°03'0 0.0
2017-Sep-30 00:28N 51°57' E 004°03'0 0.0
2017-Sep-29 23:58N 51°57' E 004°03'0 0.0
2017-Sep-29 23:28N 51°57' E 004°03'0 0.0
2017-Sep-29 22:58N 51°57' E 004°03'0 0.0
2017-Sep-29 22:28N 51°57' E 004°03'0 0.0
2017-Sep-29 21:58N 51°57' E 004°03'0 0.0
2017-Sep-29 21:28N 51°57' E 004°03'0 0.0
2017-Sep-29 20:58N 51°57' E 004°03'0 0.0
2017-Sep-29 20:28N 51°57' E 004°03'0 0.0
2017-Sep-29 19:58N 51°57' E 004°03'0 0.0
2017-Sep-29 19:28N 51°57' E 004°03'0 0.0
2017-Sep-29 18:58N 51°57' E 004°03'0 0.0
2017-Sep-29 18:28N 51°57' E 004°03'0 0.0
2017-Sep-29 17:58N 51°57' E 004°03'0 0.0
2017-Sep-29 17:28N 51°57' E 004°03'0 0.0
2017-Sep-29 16:58N 51°57' E 004°03'0 0.6
2017-Sep-29 16:30N 51°57' E 004°04'2 3.4
2017-Sep-29 16:00N 51°58' E 004°05'4 8.2
2017-Sep-29 15:30N 51°60' E 003°59'714.0
2017-Sep-29 15:01N 51°59' E 003°48'4 8.7
2017-Sep-29 14:31N 51°58' E 003°41'611.1
2017-Sep-29 13:59N 51°57' E 003°32'714.9
2017-Sep-29 13:29N 51°55' E 003°20'815.2
2017-Sep-29 12:59N 51°53' E 003°08'715.4
2017-Sep-29 12:30N 51°51' E 002°57'815.6
2017-Sep-29 12:00N 51°49' E 002°44'714.7
2017-Sep-29 11:29N 51°44' E 002°35'815.4
2017-Sep-29 10:59N 51°38' E 002°27'815.5
2017-Sep-29 10:30N 51°32' E 002°19'815.7
2017-Sep-29 10:00N 51°26' E 002°12'815.8
2017-Sep-29 09:30N 51°19' E 002°08'815.1
2017-Sep-29 09:00N 51°12' E 002°01'815.8
2017-Sep-29 08:30N 51°09' E 001°50'815.2
2017-Sep-29 08:00N 51°04' E 001°40'816.0
2017-Sep-29 07:30N 50°58' E 001°31'815.9
2017-Sep-29 07:00N 50°51' E 001°26'4816.0
2017-Sep-29 04:00N 50°25' E 000°23'917.3
2017-Sep-29 03:30N 50°23' E 000°10'917.6
2017-Sep-29 03:00N 50°20' W 000°03'917.9
2017-Sep-29 02:30N 50°18' W 000°17'918.1
2017-Sep-29 02:00N 50°16' W 000°31'917.9
2017-Sep-29 01:30N 50°19' W 000°44'916.8
2017-Sep-29 00:58N 50°26' W 000°52'817.2
2017-Sep-29 00:30N 50°33' W 000°55'714.6
2017-Sep-29 00:00N 50°41' W 000°56'  

Dump ship's entire track history